createdAt,value
2019-04-24T00:05:16.593Z,14.40
2019-04-24T00:17:13.938Z,14.20
2019-04-24T00:23:18.061Z,14.10
2019-04-24T00:41:37.838Z,13.90
2019-04-24T00:47:54.140Z,14.00
2019-04-24T00:59:48.854Z,13.70
2019-04-24T01:06:44.431Z,13.60
2019-04-24T01:24:39.808Z,13.40
2019-04-24T01:31:04.947Z,13.30
2019-04-24T01:49:42.502Z,13.20
2019-04-24T01:55:32.071Z,13.20
2019-04-24T02:01:43.787Z,13.10
2019-04-24T02:13:59.027Z,13.20
2019-04-24T02:20:15.024Z,13.20
2019-04-24T02:32:39.850Z,13.20
2019-04-24T02:39:32.480Z,13.20
2019-04-24T02:50:58.404Z,13.10
2019-04-24T03:09:42.951Z,13.10
2019-04-24T03:46:26.971Z,12.90
2019-04-24T03:52:54.532Z,12.90
2019-04-24T04:05:10.539Z,12.90
2019-04-24T04:11:01.043Z,13.00
2019-04-24T04:17:35.773Z,13.00
2019-04-24T04:35:59.361Z,12.80
2019-04-24T04:41:45.993Z,12.70
2019-04-24T04:47:39.277Z,12.40
2019-04-24T04:53:58.611Z,12.30
2019-04-24T05:00:15.580Z,12.30
2019-04-24T05:12:34.483Z,12.30
2019-04-24T05:18:58.337Z,12.40
2019-04-24T05:25:01.203Z,12.50
2019-04-24T05:30:50.498Z,12.40
2019-04-24T05:43:29.775Z,12.30
2019-04-24T05:49:40.741Z,12.30
2019-04-24T05:55:48.526Z,12.50
2019-04-24T06:08:08.565Z,12.70
2019-04-24T06:14:05.924Z,12.80
2019-04-24T06:20:36.681Z,13.10
2019-04-24T06:32:31.213Z,13.90
2019-04-24T06:39:00.925Z,14.20
2019-04-24T06:51:04.436Z,14.70
2019-04-24T07:09:44.081Z,15.30
2019-04-24T07:22:21.169Z,15.80
2019-04-24T07:28:40.527Z,16.30
2019-04-24T07:41:01.625Z,16.70
2019-04-24T07:47:01.246Z,16.90
2019-04-24T07:53:15.879Z,17.30
2019-04-24T07:59:43.315Z,17.70
2019-04-24T08:11:45.061Z,17.80
2019-04-24T08:35:59.892Z,19.50
2019-04-24T08:42:29.409Z,19.90
2019-04-24T08:48:48.497Z,20.00
2019-04-24T08:54:40.861Z,20.20
2019-04-24T09:00:57.346Z,20.40
2019-04-24T09:06:52.223Z,20.90
2019-04-24T09:19:16.980Z,21.40
2019-04-24T09:38:04.530Z,22.70
2019-04-24T09:44:03.934Z,23.00
2019-04-24T09:56:31.636Z,24.10
2019-04-24T10:08:43.467Z,24.10
2019-04-24T10:14:52.033Z,24.70
2019-04-24T10:20:46.575Z,25.40
2019-04-24T10:27:12.157Z,25.70
2019-04-24T10:33:26.731Z,26.50
2019-04-24T10:45:51.415Z,27.90
2019-04-24T10:58:06.589Z,28.70
2019-04-24T11:04:37.345Z,28.70
2019-04-24T11:17:11.330Z,29.60
2019-04-24T11:22:57.954Z,30.00
2019-04-24T11:28:53.833Z,29.90
2019-04-24T11:35:17.883Z,30.80
2019-04-24T11:41:34.148Z,31.90
2019-04-24T11:53:49.032Z,32.20
2019-04-24T11:59:38.131Z,33.30
2019-04-24T12:12:10.073Z,33.70
2019-04-24T12:24:33.183Z,34.70
2019-04-24T12:30:41.890Z,34.80
2019-04-24T12:42:51.143Z,34.60
2019-04-24T12:49:02.528Z,35.30
2019-04-24T12:55:23.923Z,35.70
2019-04-24T13:01:42.706Z,35.10
2019-04-24T13:08:00.185Z,35.30
2019-04-24T13:14:04.189Z,36.00
2019-04-24T13:19:39.051Z,36.40
2019-04-24T13:26:13.057Z,36.50
2019-04-24T13:32:44.946Z,37.00
2019-04-24T13:45:03.007Z,37.40
2019-04-24T13:51:03.700Z,37.50
2019-04-24T13:57:14.776Z,37.30
2019-04-24T14:15:53.744Z,38.00
2019-04-24T14:21:52.322Z,36.80
2019-04-24T14:34:18.927Z,37.30
2019-04-24T14:40:21.570Z,37.10
2019-04-24T14:52:31.590Z,38.10
2019-04-24T14:58:37.349Z,38.10
2019-04-24T15:04:39.406Z,38.50
2019-04-24T15:10:47.455Z,37.70
2019-04-24T15:16:59.396Z,37.50
2019-04-24T15:29:25.791Z,37.20
2019-04-24T15:35:22.404Z,38.00
2019-04-24T15:41:36.907Z,38.30
2019-04-24T15:47:47.731Z,37.40
2019-04-24T15:53:09.444Z,37.50
2019-04-24T15:59:43.753Z,37.00
2019-04-24T16:05:26.922Z,36.50
2019-04-24T16:11:31.797Z,36.90
2019-04-24T16:18:05.039Z,35.90
2019-04-24T16:30:12.744Z,35.20
2019-04-24T16:36:36.269Z,33.00
2019-04-24T16:48:37.481Z,29.50
2019-04-24T16:54:42.321Z,29.30
2019-04-24T17:01:16.909Z,30.30
2019-04-24T17:13:12.498Z,28.30
2019-04-24T17:25:24.822Z,26.90
2019-04-24T17:31:36.812Z,26.90
2019-04-24T17:37:13.420Z,27.50
2019-04-24T17:43:55.031Z,27.80
2019-04-24T17:50:10.795Z,27.90
2019-04-24T17:55:53.348Z,27.70
2019-04-24T18:01:37.175Z,26.70
2019-04-24T18:07:41.871Z,25.50
2019-04-24T18:13:46.700Z,24.40
2019-04-24T18:19:51.421Z,23.70
2019-04-24T18:26:02.106Z,23.10
2019-04-24T18:32:07.338Z,22.60
2019-04-24T18:38:15.890Z,22.10
2019-04-24T18:44:18.672Z,21.80
2019-04-24T18:50:23.488Z,21.60
2019-04-24T18:56:28.038Z,21.60
2019-04-24T19:02:32.659Z,21.50
2019-04-24T19:08:37.321Z,21.50
2019-04-24T19:14:41.919Z,21.60
2019-04-24T19:20:46.683Z,21.40
2019-04-24T19:26:51.727Z,21.40
2019-04-24T19:32:56.453Z,21.20
2019-04-24T19:39:01.939Z,21.00
2019-04-24T19:45:07.231Z,20.90
2019-04-24T19:51:12.258Z,20.90
2019-04-24T19:57:21.922Z,20.90
2019-04-24T20:03:23.308Z,20.80
2019-04-24T20:09:43.031Z,20.90
2019-04-24T20:15:47.676Z,20.90
2019-04-24T20:21:52.232Z,21.00
2019-04-24T20:27:56.785Z,21.20
2019-04-24T20:34:01.453Z,21.30
2019-04-24T20:40:08.552Z,21.20
2019-04-24T20:46:13.181Z,20.90
2019-04-24T20:52:18.532Z,20.30
2019-04-24T20:58:24.990Z,19.50
2019-04-24T21:04:29.632Z,18.90
2019-04-24T21:10:38.700Z,18.50
2019-04-24T21:16:43.259Z,18.00
2019-04-24T21:22:47.847Z,17.50
2019-04-24T21:28:52.433Z,17.00
2019-04-24T21:34:57.045Z,16.70
2019-04-24T21:41:01.714Z,16.50
2019-04-24T21:47:06.266Z,16.10
2019-04-24T21:53:11.736Z,15.50
2019-04-24T21:59:16.441Z,14.90
2019-04-24T22:05:23.732Z,14.20
2019-04-24T22:11:29.292Z,13.80
2019-04-24T22:17:34.094Z,13.50
2019-04-24T22:23:56.811Z,13.40
2019-04-24T22:30:01.641Z,13.30
2019-04-24T22:36:06.809Z,13.40
2019-04-24T22:42:11.912Z,13.30
2019-04-24T22:48:16.601Z,13.30
2019-04-24T22:54:29.147Z,13.40
2019-04-24T23:00:29.227Z,13.30
2019-04-24T23:06:34.628Z,13.40
2019-04-24T23:12:39.536Z,13.20
2019-04-24T23:18:44.212Z,13.10
2019-04-24T23:24:59.337Z,12.90
2019-04-24T23:31:22.250Z,12.70
2019-04-24T23:37:27.040Z,12.60
2019-04-24T23:43:31.643Z,12.60
2019-04-24T23:49:36.940Z,12.70
2019-04-24T23:55:41.869Z,12.70
